createdAt,value
2022-09-09T00:02:23.588Z,99.90
2022-09-09T00:05:13.936Z,99.90
2022-09-09T00:07:48.061Z,99.90
2022-09-09T00:10:28.337Z,99.90
2022-09-09T00:13:17.371Z,99.90
2022-09-09T00:16:17.258Z,99.90
2022-09-09T00:19:15.434Z,99.90
2022-09-09T00:21:58.524Z,99.90
2022-09-09T00:24:30.452Z,99.90
2022-09-09T00:27:07.426Z,99.90
2022-09-09T00:30:10.142Z,99.90
2022-09-09T00:32:37.284Z,99.90
2022-09-09T00:35:13.582Z,99.90
2022-09-09T00:37:41.184Z,99.90
2022-09-09T00:40:35.172Z,99.90
2022-09-09T00:43:24.223Z,99.90
2022-09-09T00:46:39.714Z,99.90
2022-09-09T00:49:22.285Z,99.90
2022-09-09T00:52:07.945Z,99.90
2022-09-09T00:55:16.363Z,99.90
2022-09-09T00:57:43.675Z,99.90
2022-09-09T01:00:27.665Z,99.90
2022-09-09T01:02:54.962Z,99.90
2022-09-09T01:05:27.355Z,99.90
2022-09-09T01:07:58.393Z,99.90
2022-09-09T01:10:50.691Z,99.90
2022-09-09T01:13:26.498Z,99.90
2022-09-09T01:15:58.518Z,99.90
2022-09-09T01:18:35.435Z,99.90
2022-09-09T01:21:28.758Z,99.90
2022-09-09T01:24:10.858Z,99.90
2022-09-09T01:26:43.902Z,99.90
2022-09-09T01:29:14.369Z,99.90
2022-09-09T01:31:59.971Z,99.90
2022-09-09T01:34:34.688Z,99.90
2022-09-09T01:37:08.235Z,99.90
2022-09-09T01:39:36.186Z,99.90
2022-09-09T01:42:06.312Z,99.90
2022-09-09T01:44:33.838Z,99.90
2022-09-09T01:47:00.707Z,99.90
2022-09-09T01:49:27.850Z,99.90
2022-09-09T01:51:57.281Z,99.90
2022-09-09T01:54:28.766Z,99.90
2022-09-09T01:57:20.399Z,99.90
2022-09-09T02:00:01.655Z,99.90
2022-09-09T02:03:09.721Z,99.90
2022-09-09T02:05:50.422Z,99.90
2022-09-09T02:08:40.983Z,99.90
2022-09-09T02:11:17.837Z,99.90
2022-09-09T02:13:48.190Z,99.90
2022-09-09T02:16:41.701Z,99.90
2022-09-09T02:19:27.436Z,99.90
2022-09-09T02:21:56.822Z,99.90
2022-09-09T02:24:24.316Z,99.90
2022-09-09T02:26:56.449Z,99.90
2022-09-09T02:29:36.257Z,99.90
2022-09-09T02:32:07.394Z,99.90
2022-09-09T02:34:39.093Z,99.90
2022-09-09T02:37:09.142Z,99.90
2022-09-09T02:39:36.121Z,99.90
2022-09-09T02:42:05.035Z,99.90
2022-09-09T02:44:32.270Z,99.90
2022-09-09T02:47:25.634Z,99.90
2022-09-09T02:49:52.615Z,99.90
2022-09-09T02:52:25.289Z,99.90
2022-09-09T02:54:58.788Z,99.90
2022-09-09T02:57:29.263Z,99.90
2022-09-09T03:00:01.709Z,99.90
2022-09-09T03:02:29.050Z,99.90
2022-09-09T03:04:56.142Z,99.90
2022-09-09T03:07:23.451Z,99.90
2022-09-09T03:09:50.526Z,99.90
2022-09-09T03:12:17.639Z,99.90
2022-09-09T03:14:46.433Z,99.90
2022-09-09T03:17:13.848Z,99.90
2022-09-09T03:19:41.147Z,99.90
2022-09-09T03:22:11.169Z,99.90
2022-09-09T03:24:38.250Z,99.90
2022-09-09T03:27:05.177Z,99.90
2022-09-09T03:29:32.011Z,99.90
2022-09-09T03:31:59.150Z,99.90
2022-09-09T03:34:26.022Z,99.90
2022-09-09T03:36:53.043Z,99.90
2022-09-09T03:39:20.135Z,99.90
2022-09-09T03:41:49.332Z,99.90
2022-09-09T03:44:16.345Z,99.90
2022-09-09T03:46:43.412Z,99.90
2022-09-09T03:49:11.353Z,99.90
2022-09-09T03:51:39.406Z,99.90
2022-09-09T03:54:09.164Z,99.90
2022-09-09T03:56:36.546Z,99.90
2022-09-09T03:59:04.252Z,99.90
2022-09-09T04:01:31.623Z,99.90
2022-09-09T04:03:59.242Z,99.90
2022-09-09T04:06:26.983Z,99.90
2022-09-09T04:08:54.103Z,99.90
2022-09-09T04:11:21.190Z,99.90
2022-09-09T04:13:48.187Z,99.90
2022-09-09T04:16:15.806Z,99.90
2022-09-09T04:18:43.026Z,99.90
2022-09-09T04:21:11.538Z,99.90
2022-09-09T04:23:39.044Z,99.90
2022-09-09T04:26:08.922Z,99.90
2022-09-09T04:28:37.605Z,99.90
2022-09-09T04:31:06.582Z,99.90
2022-09-09T04:33:37.014Z,99.90
2022-09-09T04:36:07.017Z,99.90
2022-09-09T04:38:34.150Z,99.90
2022-09-09T04:41:01.117Z,99.90
2022-09-09T04:43:28.231Z,99.90
2022-09-09T04:45:55.331Z,99.90
2022-09-09T04:48:22.507Z,99.90
2022-09-09T04:51:05.720Z,99.90
2022-09-09T04:53:35.093Z,99.90
2022-09-09T04:56:07.906Z,99.90
2022-09-09T04:58:34.870Z,99.90
2022-09-09T05:01:11.007Z,99.90
2022-09-09T05:03:38.675Z,99.90
2022-09-09T05:06:09.207Z,99.90
2022-09-09T05:08:40.406Z,99.90
2022-09-09T05:11:25.297Z,99.90
2022-09-09T05:13:52.858Z,99.90
2022-09-09T05:16:21.471Z,99.90
2022-09-09T05:18:50.009Z,99.90
2022-09-09T05:21:17.906Z,99.90
2022-09-09T05:23:46.867Z,99.90
2022-09-09T05:26:19.701Z,99.90
2022-09-09T05:28:48.001Z,99.90
2022-09-09T05:31:17.760Z,99.90
2022-09-09T05:33:46.986Z,99.90
2022-09-09T05:36:16.518Z,99.90
2022-09-09T05:38:44.527Z,99.90
2022-09-09T05:41:12.875Z,99.90
2022-09-09T05:43:40.170Z,99.90
2022-09-09T05:46:13.000Z,99.90
2022-09-09T05:48:41.224Z,99.90
2022-09-09T05:51:10.941Z,99.90
2022-09-09T05:53:38.374Z,99.90
2022-09-09T05:56:16.292Z,99.90
2022-09-09T05:58:44.816Z,99.90
2022-09-09T06:01:15.202Z,99.90
2022-09-09T06:03:44.242Z,99.90
2022-09-09T06:06:14.945Z,99.90
2022-09-09T06:08:47.022Z,99.90
2022-09-09T06:11:17.854Z,99.90
2022-09-09T06:13:44.963Z,99.90
2022-09-09T06:16:13.597Z,99.90
2022-09-09T06:18:41.593Z,99.90
2022-09-09T06:21:16.711Z,99.90
2022-09-09T06:23:45.479Z,99.90
2022-09-09T06:26:15.794Z,99.90
2022-09-09T06:28:45.321Z,99.90
2022-09-09T06:31:13.989Z,99.90
2022-09-09T06:33:43.167Z,99.90
2022-09-09T06:36:16.777Z,99.90
2022-09-09T06:38:44.152Z,99.90
2022-09-09T06:41:13.259Z,99.90
2022-09-09T06:43:40.307Z,99.90
2022-09-09T06:46:11.426Z,99.90
2022-09-09T06:48:41.897Z,99.90
2022-09-09T06:51:22.163Z,99.90
2022-09-09T06:53:54.456Z,99.90
2022-09-09T06:56:24.607Z,99.90
2022-09-09T06:58:54.459Z,99.90
2022-09-09T07:01:31.518Z,99.90
2022-09-09T07:04:00.647Z,99.90
2022-09-09T07:06:32.563Z,99.90
2022-09-09T07:09:07.964Z,99.90
2022-09-09T07:11:40.768Z,99.90
2022-09-09T07:14:08.662Z,99.90
2022-09-09T07:16:38.193Z,99.90
2022-09-09T07:19:05.390Z,99.90
2022-09-09T07:21:34.525Z,99.90
2022-09-09T07:24:02.658Z,99.90
2022-09-09T07:26:31.896Z,99.90
2022-09-09T07:28:59.451Z,99.90
2022-09-09T07:31:32.533Z,99.90
2022-09-09T07:34:00.865Z,99.90
2022-09-09T07:36:36.584Z,99.90
2022-09-09T07:39:07.199Z,99.90
2022-09-09T07:41:39.700Z,99.90
2022-09-09T07:44:15.691Z,99.90
2022-09-09T07:46:42.717Z,99.90
2022-09-09T07:49:11.945Z,99.90
2022-09-09T07:51:45.359Z,99.90
2022-09-09T07:54:15.772Z,99.90
2022-09-09T07:56:43.602Z,99.90
2022-09-09T07:59:11.345Z,99.90
2022-09-09T08:01:59.250Z,99.90
2022-09-09T08:04:27.237Z,99.90
2022-09-09T08:06:57.277Z,99.90
2022-09-09T08:09:30.049Z,99.90
2022-09-09T08:11:59.214Z,99.90
2022-09-09T08:14:26.401Z,99.90
2022-09-09T08:16:55.448Z,99.90
2022-09-09T08:19:22.721Z,99.90
2022-09-09T08:21:50.158Z,99.90
2022-09-09T08:24:17.615Z,99.90
2022-09-09T08:26:48.498Z,99.90
2022-09-09T08:29:15.860Z,99.90
2022-09-09T08:31:45.875Z,99.90
2022-09-09T08:34:13.679Z,99.90
2022-09-09T08:36:43.716Z,99.90
2022-09-09T08:39:12.650Z,99.90
2022-09-09T08:42:30.940Z,99.90
2022-09-09T08:45:25.769Z,99.90
2022-09-09T08:48:12.910Z,99.90
2022-09-09T08:50:41.787Z,99.90
2022-09-09T08:53:11.715Z,99.90
2022-09-09T08:55:38.514Z,99.90
2022-09-09T08:58:30.816Z,99.90
2022-09-09T09:01:09.827Z,99.90
2022-09-09T09:03:54.914Z,99.90
2022-09-09T09:06:30.588Z,99.90
2022-09-09T09:09:17.957Z,99.90
2022-09-09T09:12:04.609Z,99.90
2022-09-09T09:14:35.315Z,99.90
2022-09-09T09:17:10.402Z,99.90
2022-09-09T09:19:41.958Z,99.90
2022-09-09T09:22:32.171Z,99.90
2022-09-09T09:25:19.014Z,99.90
2022-09-09T09:28:02.134Z,99.90
2022-09-09T09:30:46.973Z,99.90
2022-09-09T09:33:41.868Z,99.90
2022-09-09T09:36:09.625Z,99.40
2022-09-09T09:41:39.639Z,90.90
2022-09-09T09:44:28.300Z,78.50
2022-09-09T09:47:24.614Z,70.00
2022-09-09T09:50:00.576Z,70.50
2022-09-09T09:52:30.286Z,76.70
2022-09-09T09:55:05.296Z,82.30
2022-09-09T09:57:35.273Z,87.20
2022-09-09T10:00:14.981Z,91.80
2022-09-09T10:02:45.003Z,92.90
2022-09-09T10:05:26.537Z,96.40
2022-09-09T10:08:10.186Z,99.10
2022-09-09T10:10:49.494Z,99.90
2022-09-09T10:13:41.113Z,99.90
2022-09-09T10:16:14.570Z,99.90
2022-09-09T10:19:05.063Z,99.90
2022-09-09T10:21:50.651Z,99.90
2022-09-09T10:24:41.239Z,99.90
2022-09-09T10:27:12.920Z,99.90
2022-09-09T10:30:11.082Z,99.40
2022-09-09T10:32:39.511Z,99.90
2022-09-09T10:35:12.322Z,99.70
2022-09-09T10:37:50.580Z,99.90
2022-09-09T10:41:00.091Z,99.90
2022-09-09T10:43:49.257Z,99.90
2022-09-09T10:46:39.663Z,99.90
2022-09-09T10:49:22.811Z,99.90
2022-09-09T10:52:12.037Z,99.90
2022-09-09T10:55:00.616Z,99.90
2022-09-09T10:57:40.147Z,99.90
2022-09-09T11:00:20.652Z,99.90
2022-09-09T11:03:04.402Z,99.90
2022-09-09T11:05:42.919Z,99.90
2022-09-09T11:11:23.194Z,99.90
2022-09-09T11:13:53.255Z,99.90
2022-09-09T11:16:49.504Z,99.90
2022-09-09T11:19:37.432Z,99.90
2022-09-09T11:22:15.812Z,99.90
2022-09-09T11:24:51.971Z,99.90
2022-09-09T11:27:32.795Z,99.90
2022-09-09T11:30:55.477Z,99.50
2022-09-09T11:33:23.431Z,98.70
2022-09-09T11:36:05.890Z,99.40
2022-09-09T11:38:46.794Z,99.90
2022-09-09T11:41:21.007Z,99.90
2022-09-09T11:43:53.786Z,99.90
2022-09-09T11:46:23.817Z,99.90
2022-09-09T11:49:06.476Z,99.90
2022-09-09T11:51:36.457Z,99.90
2022-09-09T11:54:30.447Z,99.90
2022-09-09T11:56:57.954Z,99.90
2022-09-09T11:59:27.991Z,99.90
2022-09-09T12:02:12.046Z,98.90
2022-09-09T12:04:45.742Z,99.20
2022-09-09T12:07:12.635Z,99.90
2022-09-09T12:09:39.568Z,99.90
2022-09-09T12:12:26.019Z,99.90
2022-09-09T12:15:01.614Z,99.90
2022-09-09T12:17:38.134Z,99.90
2022-09-09T12:20:22.521Z,99.90
2022-09-09T12:22:58.708Z,99.90
2022-09-09T12:25:56.187Z,99.90
2022-09-09T12:28:46.935Z,99.90
2022-09-09T12:31:26.875Z,99.90
2022-09-09T12:33:54.200Z,99.90
2022-09-09T12:36:25.678Z,99.90
2022-09-09T12:38:53.310Z,99.90
2022-09-09T12:41:21.650Z,99.90
2022-09-09T12:43:51.014Z,99.90
2022-09-09T12:46:43.027Z,99.90
2022-09-09T12:49:35.560Z,99.90
2022-09-09T12:52:06.574Z,99.60
2022-09-09T12:54:36.075Z,99.10
2022-09-09T12:57:04.218Z,99.60
2022-09-09T12:59:40.413Z,99.90
2022-09-09T13:02:20.690Z,99.70
2022-09-09T13:04:47.977Z,99.70
2022-09-09T13:07:17.040Z,99.90
2022-09-09T13:09:45.739Z,99.60
2022-09-09T13:12:25.990Z,99.40
2022-09-09T13:14:57.173Z,99.90
2022-09-09T13:17:26.910Z,99.90
2022-09-09T13:19:54.727Z,99.90
2022-09-09T13:22:35.251Z,99.90
2022-09-09T13:25:27.464Z,99.90
2022-09-09T13:27:55.887Z,99.90
2022-09-09T13:30:37.306Z,99.90
2022-09-09T13:33:23.561Z,99.90
2022-09-09T13:35:56.269Z,99.90
2022-09-09T13:38:27.516Z,99.90
2022-09-09T13:40:58.581Z,99.90
2022-09-09T13:43:27.000Z,99.90
2022-09-09T13:45:59.500Z,99.90
2022-09-09T13:48:27.285Z,99.90
2022-09-09T13:51:05.520Z,99.90
2022-09-09T13:53:32.830Z,99.90
2022-09-09T13:56:00.707Z,99.90
2022-09-09T13:58:27.621Z,99.90
2022-09-09T14:00:54.921Z,99.90
2022-09-09T14:03:22.634Z,99.90
2022-09-09T14:05:50.239Z,99.90
2022-09-09T14:08:28.151Z,99.90
2022-09-09T14:10:56.948Z,99.90
2022-09-09T14:13:24.297Z,99.90
2022-09-09T14:15:51.237Z,99.90
2022-09-09T14:18:18.221Z,99.90
2022-09-09T14:20:46.249Z,99.90
2022-09-09T14:23:13.783Z,99.90
2022-09-09T14:25:42.409Z,99.90
2022-09-09T14:28:11.558Z,99.90
2022-09-09T14:30:41.129Z,99.90
2022-09-09T14:33:10.403Z,99.90
2022-09-09T14:35:37.483Z,99.90
2022-09-09T14:38:05.589Z,99.90
2022-09-09T14:40:32.638Z,99.90
2022-09-09T14:43:00.219Z,99.90
2022-09-09T14:45:27.460Z,99.90
2022-09-09T14:47:54.485Z,99.90
2022-09-09T14:50:22.908Z,99.90
2022-09-09T14:52:49.819Z,99.90
2022-09-09T14:55:16.831Z,99.90
2022-09-09T14:57:44.376Z,99.90
2022-09-09T15:00:12.977Z,99.90
2022-09-09T15:02:40.374Z,99.90
2022-09-09T15:05:07.686Z,99.90
2022-09-09T15:07:35.090Z,99.90
2022-09-09T15:10:02.117Z,99.90
2022-09-09T15:12:29.487Z,99.90
2022-09-09T15:14:56.805Z,99.90
2022-09-09T15:17:28.149Z,99.90
2022-09-09T15:19:55.953Z,99.90
2022-09-09T15:22:23.288Z,99.90
2022-09-09T15:24:50.346Z,99.90
2022-09-09T15:27:18.997Z,99.90
2022-09-09T15:29:46.134Z,99.90
2022-09-09T15:32:13.374Z,99.90
2022-09-09T15:34:40.619Z,99.90
2022-09-09T15:37:08.274Z,99.90
2022-09-09T15:39:38.711Z,99.90
2022-09-09T15:42:08.728Z,99.90
2022-09-09T15:44:43.105Z,99.90
2022-09-09T15:47:13.502Z,99.90
2022-09-09T15:49:40.524Z,99.90
2022-09-09T15:52:07.534Z,99.90
2022-09-09T15:54:39.609Z,99.90
2022-09-09T15:57:08.926Z,99.90
2022-09-09T15:59:36.305Z,99.90
2022-09-09T16:02:03.975Z,99.90
2022-09-09T16:04:31.175Z,99.90
2022-09-09T16:07:05.398Z,99.90
2022-09-09T16:09:33.420Z,99.90
2022-09-09T16:12:02.696Z,99.90
2022-09-09T16:14:35.004Z,99.90
2022-09-09T16:17:03.261Z,99.90
2022-09-09T16:19:30.208Z,99.90
2022-09-09T16:21:57.637Z,99.90
2022-09-09T16:24:25.181Z,99.90
2022-09-09T16:26:55.352Z,99.90
2022-09-09T16:29:23.371Z,99.90
2022-09-09T16:31:51.694Z,99.90
2022-09-09T16:34:19.636Z,99.90
2022-09-09T16:36:48.436Z,99.90
2022-09-09T16:39:18.183Z,99.90
2022-09-09T16:41:46.651Z,99.90
2022-09-09T16:44:16.622Z,99.90
2022-09-09T16:46:45.335Z,99.90
2022-09-09T16:49:15.771Z,99.90
2022-09-09T16:51:48.629Z,99.90
2022-09-09T16:54:17.103Z,99.90
2022-09-09T16:56:46.058Z,99.90
2022-09-09T16:59:18.697Z,99.90
2022-09-09T17:01:48.088Z,99.90
2022-09-09T17:04:21.265Z,99.90
2022-09-09T17:06:53.620Z,99.90
2022-09-09T17:09:22.141Z,99.90
2022-09-09T17:11:51.743Z,99.90
2022-09-09T17:14:20.415Z,99.90
2022-09-09T17:16:47.686Z,99.90
2022-09-09T17:19:15.401Z,99.90
2022-09-09T17:22:00.043Z,99.90
2022-09-09T17:24:30.466Z,99.90
2022-09-09T17:26:58.419Z,99.90
2022-09-09T17:29:26.016Z,99.90
2022-09-09T17:31:53.360Z,99.90
2022-09-09T17:34:20.327Z,99.90
2022-09-09T17:36:47.240Z,99.90
2022-09-09T17:39:14.366Z,99.90
2022-09-09T17:41:41.385Z,99.90
2022-09-09T17:44:10.660Z,99.90
2022-09-09T17:46:43.581Z,99.90
2022-09-09T17:49:14.061Z,99.90
2022-09-09T17:51:42.830Z,99.90
2022-09-09T17:54:19.228Z,99.90
2022-09-09T17:56:48.279Z,99.90
2022-09-09T17:59:17.117Z,99.90
2022-09-09T18:01:46.636Z,99.90
2022-09-09T18:04:15.704Z,99.90
2022-09-09T18:06:45.447Z,99.90
2022-09-09T18:09:15.894Z,99.90
2022-09-09T18:11:45.607Z,99.90
2022-09-09T18:14:17.879Z,99.90
2022-09-09T18:16:46.045Z,99.90
2022-09-09T18:19:16.411Z,99.90
2022-09-09T18:21:44.643Z,99.90
2022-09-09T18:24:13.962Z,99.90
2022-09-09T18:26:43.034Z,99.90
2022-09-09T18:29:12.885Z,99.90
2022-09-09T18:31:42.536Z,99.90
2022-09-09T18:34:12.387Z,99.90
2022-09-09T18:36:40.906Z,99.90
2022-09-09T18:39:08.958Z,99.90
2022-09-09T18:41:44.910Z,99.90
2022-09-09T18:44:16.531Z,99.90
2022-09-09T18:46:44.835Z,99.90
2022-09-09T18:49:12.652Z,99.90
2022-09-09T18:51:42.809Z,99.90
2022-09-09T18:54:22.714Z,99.90
2022-09-09T18:56:50.391Z,99.90
2022-09-09T18:59:20.325Z,99.90
2022-09-09T19:01:50.551Z,99.90
2022-09-09T19:04:19.207Z,99.90
2022-09-09T19:06:48.087Z,99.90
2022-09-09T19:09:18.043Z,99.90
2022-09-09T19:11:46.422Z,99.90
2022-09-09T19:14:17.037Z,99.90
2022-09-09T19:16:50.831Z,99.90
2022-09-09T19:19:38.349Z,99.90
2022-09-09T19:22:06.826Z,99.90
2022-09-09T19:24:34.620Z,99.90
2022-09-09T19:27:05.873Z,99.90
2022-09-09T19:29:36.390Z,99.90
2022-09-09T19:34:52.963Z,99.90
2022-09-09T19:37:20.523Z,99.90
2022-09-09T19:39:49.511Z,99.90
2022-09-09T19:42:16.623Z,99.90
2022-09-09T19:44:44.067Z,99.90
2022-09-09T19:47:11.077Z,99.90
2022-09-09T19:49:38.616Z,99.90
2022-09-09T19:52:05.723Z,99.90
2022-09-09T19:54:33.052Z,99.90
2022-09-09T19:57:01.248Z,99.90
2022-09-09T19:59:29.388Z,99.90
2022-09-09T20:01:57.066Z,99.90
2022-09-09T20:04:24.373Z,99.90
2022-09-09T20:06:53.180Z,99.90
2022-09-09T20:09:21.439Z,99.90
2022-09-09T20:11:49.766Z,99.90
2022-09-09T20:14:17.840Z,99.90
2022-09-09T20:16:45.794Z,99.90
2022-09-09T20:19:14.295Z,99.90
2022-09-09T20:21:47.264Z,99.90
2022-09-09T20:24:20.321Z,99.90
2022-09-09T20:26:49.036Z,99.90
2022-09-09T20:29:19.464Z,99.90
2022-09-09T20:31:46.859Z,99.90
2022-09-09T20:34:22.234Z,99.90
2022-09-09T20:36:50.915Z,99.90
2022-09-09T20:39:20.750Z,99.90
2022-09-09T20:41:48.957Z,99.90
2022-09-09T20:44:22.823Z,99.90
2022-09-09T20:46:54.222Z,99.90
2022-09-09T20:49:23.056Z,99.90
2022-09-09T20:51:50.897Z,99.90
2022-09-09T20:54:20.860Z,99.90
2022-09-09T20:56:50.083Z,99.90
2022-09-09T20:59:20.093Z,99.90
2022-09-09T21:01:47.897Z,99.90
2022-09-09T21:04:17.521Z,99.90
2022-09-09T21:06:45.663Z,99.90
2022-09-09T21:09:13.112Z,99.90
2022-09-09T21:11:40.282Z,99.90
2022-09-09T21:14:07.471Z,99.90
2022-09-09T21:16:34.390Z,99.90
2022-09-09T21:19:01.498Z,99.90
2022-09-09T21:21:28.782Z,99.90
2022-09-09T21:23:58.300Z,99.90
2022-09-09T21:26:26.024Z,99.90
2022-09-09T21:28:54.919Z,99.90
2022-09-09T21:31:27.511Z,99.90
2022-09-09T21:33:57.584Z,99.90
2022-09-09T21:36:25.453Z,99.90
2022-09-09T21:38:52.342Z,99.90
2022-09-09T21:41:19.785Z,99.90
2022-09-09T21:43:51.442Z,99.90
2022-09-09T21:46:18.507Z,99.90
2022-09-09T21:48:46.314Z,99.90
2022-09-09T21:51:16.051Z,99.90
2022-09-09T21:53:43.690Z,99.90
2022-09-09T21:56:13.891Z,99.90
2022-09-09T21:58:41.767Z,99.90
2022-09-09T22:01:15.067Z,99.90
2022-09-09T22:03:43.768Z,99.90
2022-09-09T22:06:14.121Z,99.90
2022-09-09T22:08:41.599Z,99.90
2022-09-09T22:11:22.453Z,99.90
2022-09-09T22:13:50.669Z,99.90
2022-09-09T22:16:20.197Z,99.90
2022-09-09T22:18:52.691Z,99.90
2022-09-09T22:21:20.415Z,99.90
2022-09-09T22:23:59.064Z,99.90
2022-09-09T22:26:28.647Z,99.90
2022-09-09T22:28:57.274Z,99.90
2022-09-09T22:31:25.423Z,99.90
2022-09-09T22:33:52.633Z,99.90
2022-09-09T22:36:20.613Z,99.90
2022-09-09T22:38:50.870Z,99.90
2022-09-09T22:41:19.398Z,99.90
2022-09-09T22:43:47.024Z,99.90
2022-09-09T22:46:14.263Z,99.90
2022-09-09T22:48:41.462Z,99.90
2022-09-09T22:51:11.210Z,99.90
2022-09-09T22:53:40.826Z,99.90
2022-09-09T22:56:12.565Z,99.90
2022-09-09T22:58:39.810Z,99.90
2022-09-09T23:01:13.986Z,99.90
2022-09-09T23:03:42.274Z,99.90
2022-09-09T23:06:12.186Z,99.90
2022-09-09T23:08:39.305Z,99.90
2022-09-09T23:11:11.850Z,99.90
2022-09-09T23:13:42.415Z,99.90
2022-09-09T23:16:20.955Z,99.90
2022-09-09T23:18:48.467Z,99.90
2022-09-09T23:21:15.760Z,99.90
2022-09-09T23:23:44.266Z,99.90
2022-09-09T23:26:13.965Z,99.90
2022-09-09T23:28:44.075Z,99.90
2022-09-09T23:31:15.282Z,99.90
2022-09-09T23:33:43.716Z,99.90
2022-09-09T23:36:17.869Z,99.90
2022-09-09T23:38:46.101Z,99.90
2022-09-09T23:41:15.602Z,99.90
2022-09-09T23:43:44.518Z,99.90
2022-09-09T23:46:15.173Z,99.90
2022-09-09T23:48:43.211Z,99.90
2022-09-09T23:51:17.526Z,99.90
2022-09-09T23:53:48.908Z,99.90
2022-09-09T23:56:15.773Z,99.90
2022-09-09T23:58:42.668Z,99.90
